Time;durP1;ratioP1;P1;durP2;ratioP2;P2;SDS_P1;SDS_P2;PMS_P1;PMS_P2;Temp;Humidity;BMP_temperature;BMP_pressure;BME280_temperature;BME280_humidity;BME280_pressure;Samples;Min_cycle;Max_cycle;Signal;HPM_P1;HPM_P2
2023/12/11 00:01:54;;;;;;;10.20;3.90;;;;;;;-22.34;56.74;99227.72;6094125;29;20032;-63
2023/12/11 00:04:58;;;;;;;11.13;3.78;;;;;;;-22.32;57.08;99237.13;6097019;29;20040;-63
2023/12/11 00:08:00;;;;;;;6.95;4.72;;;;;;;-22.27;56.84;99245.97;6092596;29;20127;-63
2023/12/11 00:11:01;;;;;;;1.58;1.42;;;;;;;-22.19;57.24;99238.34;6088232;29;20044;-62
2023/12/11 00:14:02;;;;;;;13.57;5.68;;;;;;;-22.09;56.95;99246.00;6078485;29;20048;-63
2023/12/11 00:17:05;;;;;;;7.60;4.05;;;;;;;-22.42;56.73;99198.63;6097551;29;20239;-62
2023/12/11 00:20:08;;;;;;;5.23;3.77;;;;;;;-22.20;57.09;99241.59;6074406;29;20032;-62
2023/12/11 00:23:10;;;;;;;12.38;5.38;;;;;;;-22.29;57.41;99236.56;6096332;29;20803;-64
2023/12/11 00:26:12;;;;;;;7.43;4.18;;;;;;;-22.26;56.83;99252.72;6089238;29;20147;-63
2023/12/11 00:29:14;;;;;;;12.03;6.67;;;;;;;-22.36;56.67;99244.16;6093926;29;20132;-62
2023/12/11 00:32:15;;;;;;;9.00;4.70;;;;;;;-22.45;57.06;99254.09;6092435;29;20473;-62
2023/12/11 00:35:17;;;;;;;10.43;5.00;;;;;;;-22.40;57.32;99257.94;6090770;29;20043;-64
2023/12/11 00:38:18;;;;;;;8.52;4.70;;;;;;;-22.33;57.07;99265.34;6090266;29;20757;-62
2023/12/11 00:41:20;;;;;;;9.70;4.43;;;;;;;-22.32;57.26;99254.63;6076816;29;20099;-63
2023/12/11 00:44:24;;;;;;;10.20;4.57;;;;;;;-22.30;56.97;99259.75;6091175;29;20039;-65
2023/12/11 00:47:25;;;;;;;8.98;3.92;;;;;;;-22.31;57.17;99268.84;6074772;29;20127;-62
2023/12/11 00:50:27;;;;;;;10.52;4.13;;;;;;;-22.29;57.06;99272.38;6089139;29;20044;-65
2023/12/11 00:53:31;;;;;;;15.68;5.03;;;;;;;-22.30;57.76;99288.09;6043530;29;1432785;-64
2023/12/11 00:56:32;;;;;;;8.60;4.78;;;;;;;-22.24;56.81;99293.69;6093521;29;20142;-65
2023/12/11 00:59:33;;;;;;;7.63;4.38;;;;;;;-22.20;57.32;99287.41;6094174;29;20051;-66
2023/12/11 01:02:35;;;;;;;5.93;3.20;;;;;;;-22.17;57.31;99297.69;6081708;29;20044;-65
2023/12/11 01:05:37;;;;;;;6.78;4.63;;;;;;;-22.09;56.57;99295.94;6088784;29;20043;-63
2023/12/11 01:08:39;;;;;;;9.15;4.53;;;;;;;-22.13;56.88;99304.72;6089237;29;20850;-64
2023/12/11 01:11:46;;;;;;;4.90;3.22;;;;;;;-22.20;56.77;99307.38;6088745;29;20498;-63
2023/12/11 01:14:47;;;;;;;6.25;3.92;;;;;;;-22.18;57.30;99308.41;6095257;29;20043;-62
2023/12/11 01:17:49;;;;;;;5.05;2.72;;;;;;;-22.07;56.64;99306.97;6094066;29;20453;-63
2023/12/11 01:20:50;;;;;;;8.65;4.40;;;;;;;-22.02;57.11;99310.78;6088024;29;20056;-62
2023/12/11 01:23:52;;;;;;;8.32;4.47;;;;;;;-22.01;57.26;99310.06;6092484;29;20052;-64
2023/12/11 01:26:54;;;;;;;8.07;4.15;;;;;;;-22.00;56.97;99302.72;6094910;29;20481;-63
2023/12/11 01:29:55;;;;;;;4.28;3.63;;;;;;;-21.87;56.52;99309.81;6072819;29;20044;-64
2023/12/11 01:32:57;;;;;;;6.50;3.40;;;;;;;-21.85;57.27;99308.38;6093009;29;20091;-64
2023/12/11 01:35:59;;;;;;;3.42;3.05;;;;;;;-21.87;56.87;99312.31;6093318;29;20048;-62
2023/12/11 01:39:00;;;;;;;4.10;2.83;;;;;;;-21.96;57.23;99318.91;6093462;29;20036;-63
2023/12/11 01:42:02;;;;;;;5.22;3.10;;;;;;;-21.94;56.92;99322.41;6089169;29;20040;-63
2023/12/11 01:45:04;;;;;;;10.88;4.15;;;;;;;-22.14;56.69;99312.94;6077378;29;20491;-63
2023/12/11 01:48:08;;;;;;;6.05;3.30;;;;;;;-22.19;56.84;99319.09;6093153;29;20192;-64
2023/12/11 01:51:13;;;;;;;6.25;4.05;;;;;;;-22.18;56.94;99330.00;6093801;29;20040;-63
2023/12/11 01:54:16;;;;;;;8.18;4.22;;;;;;;-22.34;57.30;99318.44;6093279;29;20063;-63
2023/12/11 01:57:17;;;;;;;9.23;3.35;;;;;;;-22.30;56.75;99335.53;6091170;29;20036;-63
2023/12/11 02:00:19;;;;;;;8.45;3.58;;;;;;;-22.19;57.13;99334.09;6075085;29;20052;-63
2023/12/11 02:03:22;;;;;;;8.37;3.97;;;;;;;-22.24;57.40;99336.13;6092246;29;20040;-63
2023/12/11 02:06:27;;;;;;;9.65;4.18;;;;;;;-22.32;57.37;99343.59;6091312;29;20472;-64
2023/12/11 02:09:32;;;;;;;8.60;4.28;;;;;;;-22.53;57.48;99329.78;6095021;29;20506;-62
2023/12/11 02:12:33;;;;;;;6.13;3.88;;;;;;;-22.51;57.35;99333.34;6086365;29;20040;-63
2023/12/11 02:15:40;;;;;;;5.68;3.47;;;;;;;-22.46;57.25;99342.19;6087776;29;20060;-62
2023/12/11 02:18:44;;;;;;;5.88;3.60;;;;;;;-22.70;57.13;99343.94;6078429;29;20056;-62
2023/12/11 02:21:48;;;;;;;3.08;2.85;;;;;;;-22.82;57.24;99332.69;6091636;29;20055;-64
2023/12/11 02:24:55;;;;;;;11.88;3.95;;;;;;;-22.73;57.72;99341.09;6091925;29;20402;-63
2023/12/11 02:27:58;;;;;;;10.73;4.05;;;;;;;-22.92;57.82;99343.34;6095272;29;20422;-63
2023/12/11 02:31:02;;;;;;;11.07;5.57;;;;;;;-23.03;58.09;99340.50;6080124;29;20405;-64
2023/12/11 02:34:08;;;;;;;4.88;3.00;;;;;;;-23.03;57.74;99342.97;6090911;29;20039;-63
2023/12/11 02:37:12;;;;;;;5.38;2.92;;;;;;;-23.07;57.57;99345.88;6081002;29;20036;-63
2023/12/11 02:40:19;;;;;;;19.30;4.55;;;;;;;-23.15;57.74;99347.53;6090541;29;20040;-63
2023/12/11 02:43:21;;;;;;;7.47;4.00;;;;;;;-23.20;57.95;99349.56;6072443;29;20042;-63
2023/12/11 02:46:25;;;;;;;9.77;4.28;;;;;;;-23.32;58.05;99348.28;6076643;29;20052;-64
2023/12/11 02:49:26;;;;;;;7.55;3.72;;;;;;;-23.30;57.88;99356.81;6092978;29;20564;-63
2023/12/11 02:52:31;;;;;;;6.13;4.28;;;;;;;-23.07;58.27;99365.81;6089580;29;20055;-63
2023/12/11 02:55:32;;;;;;;3.03;2.60;;;;;;;-23.04;57.80;99362.00;6089424;29;20062;-64
2023/12/11 02:58:36;;;;;;;2.97;2.70;;;;;;;-23.09;58.04;99372.22;6073025;29;20047;-62
2023/12/11 03:01:38;;;;;;;2.53;2.33;;;;;;;-23.04;58.37;99376.97;6089997;29;20047;-63
2023/12/11 03:04:40;;;;;;;6.37;3.03;;;;;;;-22.96;57.78;99381.16;6088820;29;20040;-64
2023/12/11 03:07:41;;;;;;;7.32;3.47;;;;;;;-23.06;57.79;99395.00;6089237;29;20496;-63
2023/12/11 03:10:43;;;;;;;14.35;5.18;;;;;;;-23.13;57.93;99396.84;6085630;29;20055;-62
2023/12/11 03:13:45;;;;;;;6.05;3.58;;;;;;;-23.20;58.24;99413.50;6066736;29;20059;-64
2023/12/11 03:16:52;;;;;;;12.57;5.57;;;;;;;-23.30;58.08;99419.09;6077576;29;20132;-63
2023/12/11 03:19:53;;;;;;;6.22;4.38;;;;;;;-23.26;58.53;99418.72;6073627;29;20047;-66
2023/12/11 03:22:55;;;;;;;7.75;4.90;;;;;;;-23.18;57.87;99417.91;6091392;29;20044;-63
2023/12/11 03:25:56;;;;;;;4.15;3.80;;;;;;;-22.98;58.33;99421.59;6089110;29;20505;-63
2023/12/11 03:29:00;;;;;;;13.02;5.90;;;;;;;-23.13;58.12;99426.75;6089802;29;20048;-65
2023/12/11 03:32:02;;;;;;;14.07;5.78;;;;;;;-23.20;58.02;99424.34;6073347;29;20474;-63
2023/12/11 03:35:05;;;;;;;9.90;5.15;;;;;;;-23.20;58.13;99424.34;6091606;29;20134;-64
2023/12/11 03:38:09;;;;;;;14.15;6.32;;;;;;;-23.20;57.93;99435.94;6089230;29;20036;-64
2023/12/11 03:41:11;;;;;;;2.38;2.08;;;;;;;-23.20;58.31;99429.31;6076231;29;20437;-66
2023/12/11 03:44:12;;;;;;;23.15;7.82;;;;;;;-23.17;57.69;99439.63;6088943;29;20044;-65
2023/12/11 03:47:14;;;;;;;12.57;5.75;;;;;;;-23.27;58.28;99443.47;6093175;29;20628;-62
2023/12/11 03:50:15;;;;;;;8.13;5.07;;;;;;;-23.37;57.99;99434.13;6092563;29;20171;-65
2023/12/11 03:53:16;;;;;;;11.93;4.25;;;;;;;-23.35;58.06;99457.59;6094504;29;20705;-66
2023/12/11 03:56:20;;;;;;;6.10;3.97;;;;;;;-23.43;57.85;99448.44;6090860;29;20044;-67
2023/12/11 03:59:24;;;;;;;10.40;3.95;;;;;;;-23.57;57.97;99454.41;6092015;29;20032;-67
2023/12/11 04:02:28;;;;;;;14.88;6.65;;;;;;;-23.64;58.13;99467.78;6096324;29;20498;-65
2023/12/11 04:05:29;;;;;;;11.05;5.03;;;;;;;-23.62;58.23;99465.47;6091186;29;20051;-64
2023/12/11 04:08:33;;;;;;;12.65;4.57;;;;;;;-23.72;57.98;99466.09;6094381;29;20044;-66
2023/12/11 04:11:35;;;;;;;14.27;5.13;;;;;;;-23.66;58.56;99475.81;6096754;29;20130;-66
2023/12/11 04:14:38;;;;;;;6.30;3.80;;;;;;;-23.63;58.15;99487.03;6092993;29;20040;-67
2023/12/11 04:17:42;;;;;;;8.80;3.65;;;;;;;-23.58;58.12;99485.88;6093084;29;20039;-64
2023/12/11 04:20:46;;;;;;;15.35;5.35;;;;;;;-23.58;57.83;99490.88;6094754;29;20647;-65
2023/12/11 04:23:47;;;;;;;10.82;3.92;;;;;;;-23.63;57.75;99483.63;6096339;29;20047;-67
2023/12/11 04:26:49;;;;;;;13.50;4.50;;;;;;;-23.66;57.81;99479.22;6094567;29;20688;-64
2023/12/11 04:29:52;;;;;;;9.40;4.13;;;;;;;-23.70;57.61;99492.06;6090764;29;20439;-68
2023/12/11 04:32:58;;;;;;;3.75;1.98;;;;;;;-23.75;58.05;99478.22;6095841;29;20055;-67
2023/12/11 04:36:07;;;;;;;7.55;3.53;;;;;;;-23.64;57.11;99495.19;6093816;29;20050;-69
2023/12/11 04:39:08;;;;;;;11.32;5.13;;;;;;;-23.73;57.43;99508.28;6081940;29;20147;-70
2023/12/11 04:42:12;;;;;;;6.03;3.15;;;;;;;-23.73;57.33;99510.78;6095245;29;20705;-65
2023/12/11 04:45:16;;;;;;;5.03;2.97;;;;;;;-23.62;57.06;99525.25;6090473;29;20056;-66
2023/12/11 04:48:20;;;;;;;2.85;2.63;;;;;;;-23.79;56.58;99525.94;6072914;29;20044;-68
2023/12/11 04:51:27;;;;;;;12.50;3.88;;;;;;;-23.85;56.81;99530.25;6077571;29;20418;-68
2023/12/11 04:54:28;;;;;;;7.03;3.50;;;;;;;-24.00;56.96;99536.88;6092001;29;20063;-68
2023/12/11 04:57:30;;;;;;;9.63;2.08;;;;;;;-23.89;56.62;99543.06;6092820;29;20044;-68
2023/12/11 05:00:32;;;;;;;6.05;4.30;;;;;;;-23.94;56.80;99546.63;6091733;29;20055;-65
2023/12/11 05:03:36;;;;;;;4.55;3.10;;;;;;;-23.91;56.75;99554.47;6096128;29;20418;-68
2023/12/11 05:06:40;;;;;;;5.85;4.07;;;;;;;-24.12;57.05;99553.84;6076365;29;20041;-68
2023/12/11 05:09:44;;;;;;;4.20;3.17;;;;;;;-24.12;56.63;99563.78;6089673;29;20044;-66
2023/12/11 05:12:46;;;;;;;3.35;3.15;;;;;;;-24.05;56.56;99571.25;6093138;29;20149;-69
2023/12/11 05:15:47;;;;;;;3.45;3.17;;;;;;;-24.09;56.99;99573.19;6091874;29;20044;-67
2023/12/11 05:18:49;;;;;;;6.32;3.38;;;;;;;-24.06;56.74;99563.59;6075209;29;20618;-67
2023/12/11 05:21:53;;;;;;;6.28;4.00;;;;;;;-23.88;56.40;99589.66;6093275;29;20044;-66
2023/12/11 05:24:57;;;;;;;7.32;4.25;;;;;;;-23.89;56.08;99587.88;6090563;29;20210;-68
2023/12/11 05:27:58;;;;;;;5.05;3.00;;;;;;;-23.81;56.74;99583.00;6095269;29;20051;-69
2023/12/11 05:31:03;;;;;;;3.95;2.53;;;;;;;-23.64;56.55;99602.28;6087550;29;20429;-67
2023/12/11 05:34:04;;;;;;;2.05;1.95;;;;;;;-23.58;56.15;99602.94;6074357;29;20056;-69
2023/12/11 05:37:06;;;;;;;3.20;3.00;;;;;;;-23.55;55.84;99592.44;6076272;29;20063;-69
2023/12/11 05:40:08;;;;;;;10.13;3.60;;;;;;;-23.58;55.74;99590.50;6075529;29;20506;-68
2023/12/11 05:43:10;;;;;;;4.80;2.38;;;;;;;-23.54;55.56;99606.69;6089620;29;20040;-67
2023/12/11 05:46:15;;;;;;;3.90;3.53;;;;;;;-23.39;55.67;99595.03;6094027;29;20486;-69
2023/12/11 05:49:20;;;;;;;2.55;2.33;;;;;;;-23.43;55.54;99597.91;6089569;29;20036;-68
2023/12/11 05:52:22;;;;;;;9.85;3.58;;;;;;;-23.44;54.64;99601.97;6088932;29;20550;-67
2023/12/11 05:55:23;;;;;;;2.97;2.58;;;;;;;-23.34;54.77;99616.34;6087154;29;20108;-72
2023/12/11 05:58:28;;;;;;;15.77;6.00;;;;;;;-23.34;54.77;99628.81;6091127;29;20196;-68
2023/12/11 06:01:29;;;;;;;4.97;3.35;;;;;;;-23.28;54.65;99633.59;6092025;29;20582;-68
2023/12/11 06:04:33;;;;;;;5.30;3.35;;;;;;;-23.27;54.60;99633.72;6091464;29;20787;-67
2023/12/11 06:07:35;;;;;;;7.32;3.90;;;;;;;-23.09;54.03;99632.38;6093131;29;20051;-67
2023/12/11 06:10:38;;;;;;;2.43;2.30;;;;;;;-23.05;54.10;99634.47;6084179;29;20188;-69
2023/12/11 06:13:42;;;;;;;14.45;3.95;;;;;;;-23.00;53.86;99639.97;6095305;29;20044;-67
2023/12/11 06:16:44;;;;;;;8.00;4.15;;;;;;;-23.04;54.02;99635.34;6094606;29;20768;-68
2023/12/11 06:19:50;;;;;;;3.22;2.85;;;;;;;-22.92;53.48;99621.72;6089607;29;20032;-69
2023/12/11 06:22:54;;;;;;;7.03;3.38;;;;;;;-22.84;53.26;99622.53;6088810;29;20075;-70
2023/12/11 06:25:58;;;;;;;7.25;3.80;;;;;;;-22.82;52.56;99629.44;6073642;29;20036;-66
2023/12/11 06:29:00;;;;;;;7.95;4.53;;;;;;;-23.02;52.99;99633.94;6085677;29;20142;-68
2023/12/11 06:32:02;;;;;;;3.83;2.92;;;;;;;-22.71;52.81;99648.94;6087381;29;20036;-67
2023/12/11 06:35:06;;;;;;;2.95;2.63;;;;;;;-22.70;52.88;99648.25;6074276;29;20043;-67
2023/12/11 06:38:08;;;;;;;7.07;4.40;;;;;;;-22.68;52.57;99638.41;6093102;29;20582;-69
2023/12/11 06:41:09;;;;;;;5.68;2.72;;;;;;;-22.43;52.70;99651.91;6087236;29;20052;-69
2023/12/11 06:44:12;;;;;;;1.73;1.30;;;;;;;-22.49;52.62;99646.28;6091777;29;20517;-69
2023/12/11 06:47:19;;;;;;;5.88;2.88;;;;;;;-22.38;52.16;99670.78;6058386;29;20043;-65
2023/12/11 06:50:21;;;;;;;8.73;2.30;;;;;;;-22.40;52.31;99662.22;6090068;29;20044;-70
2023/12/11 06:53:25;;;;;;;1.40;1.38;;;;;;;-22.26;52.40;99671.19;6092955;29;20103;-70
2023/12/11 06:56:30;;;;;;;7.28;3.25;;;;;;;-22.19;51.82;99675.22;6086543;29;20047;-70
2023/12/11 06:59:32;;;;;;;9.65;3.80;;;;;;;-22.10;52.08;99679.56;6089101;29;20047;-67
2023/12/11 07:02:33;;;;;;;12.65;4.03;;;;;;;-22.10;51.68;99669.56;6092200;29;20064;-66
2023/12/11 07:05:42;;;;;;;11.57;3.47;;;;;;;-22.14;51.77;99679.06;6093367;29;20052;-74
2023/12/11 07:08:46;;;;;;;8.13;2.97;;;;;;;-22.16;52.39;99683.00;6094221;29;20550;-71
2023/12/11 07:11:50;;;;;;;9.43;3.95;;;;;;;-22.06;51.65;99688.25;6087724;29;20043;-74
2023/12/11 07:14:53;;;;;;;6.13;3.28;;;;;;;-22.12;51.72;99657.66;6084958;29;20043;-70
2023/12/11 07:17:57;;;;;;;6.90;4.05;;;;;;;-22.09;51.27;99685.44;6087128;29;20075;-70
2023/12/11 07:20:58;;;;;;;10.02;4.07;;;;;;;-22.14;51.81;99676.56;6094098;29;20646;-70
2023/12/11 07:24:04;;;;;;;7.47;2.83;;;;;;;-21.99;52.44;99685.66;6084822;29;20043;-71
2023/12/11 07:27:05;;;;;;;4.15;2.70;;;;;;;-22.04;51.92;99686.81;6078077;29;20032;-72
2023/12/11 07:30:11;;;;;;;12.45;3.90;;;;;;;-22.06;51.77;99685.75;6100955;29;20557;-71
2023/12/11 07:33:13;;;;;;;7.90;3.70;;;;;;;-22.12;51.74;99695.97;6098274;29;20044;-72
2023/12/11 07:36:15;;;;;;;10.27;3.75;;;;;;;-22.17;51.80;99706.22;6099765;29;20047;-68
2023/12/11 07:39:16;;;;;;;6.88;3.38;;;;;;;-22.08;52.26;99709.66;6099091;29;20210;-73
2023/12/11 07:42:20;;;;;;;5.38;3.13;;;;;;;-21.93;51.75;99698.81;6094094;29;20786;-72
2023/12/11 07:45:25;;;;;;;7.70;3.63;;;;;;;-21.81;51.69;99695.13;6096574;29;20152;-71
2023/12/11 07:48:29;;;;;;;6.22;3.70;;;;;;;-21.71;51.32;99701.06;6075362;29;20060;-70
2023/12/11 07:51:35;;;;;;;3.70;2.65;;;;;;;-21.59;51.12;99712.38;6094759;29;20132;-73
2023/12/11 07:54:43;;;;;;;7.25;4.93;;;;;;;-21.75;50.76;99684.88;6091352;29;20107;-71
2023/12/11 07:57:45;;;;;;;8.18;3.75;;;;;;;-21.56;50.65;99717.69;6096594;29;20043;-70
2023/12/11 08:00:49;;;;;;;7.28;3.55;;;;;;;-21.52;50.49;99716.38;6098424;29;20044;-70
2023/12/11 08:03:51;;;;;;;8.88;3.65;;;;;;;-21.43;50.60;99728.22;6080794;29;20052;-72
2023/12/11 08:06:56;;;;;;;9.25;3.72;;;;;;;-21.40;49.82;99723.53;6076802;29;20040;-69
2023/12/11 08:09:57;;;;;;;8.02;2.92;;;;;;;-21.36;50.03;99728.13;6093776;29;20047;-69
2023/12/11 08:12:59;;;;;;;3.15;2.88;;;;;;;-21.37;50.27;99721.38;6088935;29;20098;-70
2023/12/11 08:16:01;;;;;;;2.63;2.42;;;;;;;-21.18;49.74;99728.25;6079993;29;20093;-70
2023/12/11 08:19:03;;;;;;;7.53;3.35;;;;;;;-21.10;49.62;99747.44;6090429;29;20040;-70
2023/12/11 08:22:07;;;;;;;5.38;3.85;;;;;;;-21.11;49.79;99743.19;6070513;29;20048;-70
2023/12/11 08:25:10;;;;;;;8.38;1.92;;;;;;;-21.06;49.67;99732.00;6087017;29;20048;-70
2023/12/11 08:28:11;;;;;;;6.20;3.00;;;;;;;-21.04;49.29;99739.69;6073721;29;20048;-70
2023/12/11 08:31:14;;;;;;;10.57;4.20;;;;;;;-21.09;49.40;99751.69;6094384;29;20745;-70
2023/12/11 08:34:24;;;;;;;3.50;3.20;;;;;;;-20.60;49.84;99764.28;6092555;29;20045;-70
2023/12/11 08:37:28;;;;;;;4.88;3.17;;;;;;;-19.82;48.77;99759.56;6093287;29;20051;-70
2023/12/11 08:40:33;;;;;;;5.15;3.30;;;;;;;-19.25;47.14;99782.63;6087522;29;20072;-70
2023/12/11 08:43:34;;;;;;;4.78;2.67;;;;;;;-19.10;46.59;99753.16;6078710;29;20036;-70
2023/12/11 08:46:43;;;;;;;5.43;2.95;;;;;;;-18.68;46.20;99781.44;6093703;29;20710;-71
2023/12/11 08:49:45;;;;;;;4.88;3.38;;;;;;;-18.99;45.34;99767.63;6078735;29;20429;-70
2023/12/11 08:52:46;;;;;;;7.93;3.03;;;;;;;-19.38;45.30;99779.69;6093918;29;20139;-71
2023/12/11 08:55:51;;;;;;;8.70;3.60;;;;;;;-19.65;45.75;99773.75;6087941;29;20040;-70
2023/12/11 08:58:53;;;;;;;9.40;3.92;;;;;;;-19.68;45.88;99775.06;6092251;29;20165;-70
2023/12/11 09:01:55;;;;;;;2.90;2.58;;;;;;;-19.63;45.95;99783.91;6095395;29;20037;-69
2023/12/11 09:04:56;;;;;;;5.82;3.45;;;;;;;-19.98;46.06;99791.34;6085898;29;20048;-70
2023/12/11 09:07:58;;;;;;;8.20;3.92;;;;;;;-20.39;46.54;99791.44;6089879;29;20052;-70
2023/12/11 09:11:03;;;;;;;14.60;4.15;;;;;;;-20.63;47.12;99789.88;6058246;29;20786;-70
2023/12/11 09:14:04;;;;;;;8.52;2.97;;;;;;;-20.70;47.31;99796.59;6090556;29;20044;-70
2023/12/11 09:17:06;;;;;;;6.80;3.60;;;;;;;-20.60;47.17;99808.41;6090371;29;20051;-70
2023/12/11 09:20:10;;;;;;;7.90;4.80;;;;;;;-20.79;47.47;99813.16;6090703;29;20510;-69
2023/12/11 09:23:15;;;;;;;11.85;3.70;;;;;;;-20.98;47.40;99803.72;6087019;29;20043;-72
2023/12/11 09:26:18;;;;;;;15.52;3.90;;;;;;;-21.22;48.30;99821.19;6077231;29;20048;-69
2023/12/11 09:29:19;;;;;;;12.30;4.33;;;;;;;-21.28;48.24;99830.53;6075698;29;20043;-67
2023/12/11 09:32:23;;;;;;;1.48;1.48;;;;;;;-21.28;48.81;99835.53;6064872;29;20040;-68
2023/12/11 09:35:28;;;;;;;6.47;3.25;;;;;;;-21.31;48.65;99836.09;6071180;29;20402;-68
2023/12/11 09:38:30;;;;;;;5.75;2.92;;;;;;;-21.34;48.45;99830.75;6069781;29;20139;-69
2023/12/11 09:41:35;;;;;;;7.43;3.70;;;;;;;-21.25;48.65;99835.84;6071195;29;20116;-70
2023/12/11 09:44:37;;;;;;;8.23;4.13;;;;;;;-21.35;48.57;99819.88;6066603;29;20044;-68
2023/12/11 09:47:51;;;;;;;1.63;1.52;;;;;;;-21.31;48.81;99842.00;6055020;29;20196;-70
2023/12/11 09:50:53;;;;;;;5.25;2.45;;;;;;;-21.15;48.25;99843.59;6071730;29;20048;-69
2023/12/11 09:53:59;;;;;;;6.88;3.67;;;;;;;-21.18;47.57;99855.78;6070478;29;20447;-67
2023/12/11 09:57:01;;;;;;;10.23;4.50;;;;;;;-21.36;47.64;99863.13;6069539;29;20040;-72
2023/12/11 10:00:04;;;;;;;4.32;3.17;;;;;;;-21.39;48.42;99861.94;6066637;29;20036;-69
2023/12/11 10:03:07;;;;;;;;;;;;;;;-21.57;48.79;99870.84;6071970;29;20123;-68
2023/12/11 10:06:09;;;;;;;3.97;3.40;;;;;;;-21.66;47.96;99864.88;6070134;29;19970;-68
2023/12/11 10:09:31;;;;;;;7.05;3.30;;;;;;;-21.83;48.71;99866.44;6067656;29;20125;-69
2023/12/11 10:12:40;;;;;;;15.98;4.68;;;;;;;-21.93;48.13;99873.66;6047835;29;20055;-70
2023/12/11 10:15:44;;;;;;;7.43;4.10;;;;;;;-21.98;49.05;99884.75;6052538;29;20426;-70
2023/12/11 10:18:49;;;;;;;6.07;2.60;;;;;;;-21.93;48.81;99888.66;6071040;29;20131;-68
2023/12/11 10:21:52;;;;;;;15.13;5.72;;;;;;;-21.98;48.37;99884.75;6068621;29;20041;-69
2023/12/11 10:24:57;;;;;;;8.75;4.20;;;;;;;-22.10;48.91;99899.28;6072050;29;20032;-69
2023/12/11 10:28:07;;;;;;;11.25;6.18;;;;;;;-22.16;49.71;99897.72;6068912;29;20037;-69
2023/12/11 10:31:09;;;;;;;3.25;2.95;;;;;;;-22.16;49.86;99892.72;6047271;29;20044;-70
2023/12/11 10:34:11;;;;;;;23.93;7.40;;;;;;;-22.02;49.75;99913.50;6070358;29;20127;-71
2023/12/11 10:37:35;;;;;;;14.65;5.40;;;;;;;-21.95;49.24;99925.06;6053810;29;20610;-69
2023/12/11 10:40:41;;;;;;;4.30;3.20;;;;;;;-22.03;50.09;99915.81;6067566;29;20040;-71
2023/12/11 10:43:45;;;;;;;8.85;2.72;;;;;;;-22.19;49.96;99884.94;6067533;29;20041;-70
2023/12/11 10:46:50;;;;;;;6.28;2.95;;;;;;;-22.08;50.04;99922.81;6066548;29;20051;-71
2023/12/11 10:50:00;;;;;;;6.05;2.50;;;;;;;-22.15;49.49;99921.97;6069894;29;20092;-71
2023/12/11 10:53:03;;;;;;;9.00;4.32;;;;;;;-22.39;49.95;99928.53;6072697;29;20701;-73
2023/12/11 10:56:07;;;;;;;10.57;2.38;;;;;;;-22.49;50.33;99925.75;6072742;29;20037;-75
2023/12/11 10:59:11;;;;;;;8.65;3.45;;;;;;;-22.75;50.29;99926.22;6054695;29;20671;-70
2023/12/11 11:02:22;;;;;;;6.63;2.85;;;;;;;-22.87;50.30;99937.28;6072713;29;20403;-70
2023/12/11 11:05:26;;;;;;;3.42;2.85;;;;;;;-23.09;50.80;99940.59;6073379;29;20777;-69
2023/12/11 11:08:48;;;;;;;5.25;3.40;;;;;;;-23.21;50.69;99938.47;6072360;29;20075;-69
2023/12/11 11:12:00;;;;;;;2.60;2.38;;;;;;;-23.29;50.24;99946.72;6075104;29;20044;-70
2023/12/11 11:15:02;;;;;;;4.97;2.60;;;;;;;-23.53;50.55;99936.41;6074721;29;20037;-70
2023/12/11 11:18:09;;;;;;;3.20;2.72;;;;;;;-23.58;50.83;99946.69;6073962;29;20044;-71
2023/12/11 11:21:13;;;;;;;2.63;2.42;;;;;;;-23.74;50.95;99970.59;6057948;29;20040;-71
2023/12/11 11:24:27;;;;;;;3.23;2.60;;;;;;;-23.84;51.16;99961.13;6075737;29;20040;-70
2023/12/11 11:27:57;;;;;;;10.52;4.05;;;;;;;-23.81;50.67;99975.53;6079852;29;20036;-71
2023/12/11 11:31:00;;;;;;;8.98;2.97;;;;;;;-23.96;51.29;99968.78;6072154;29;20045;-72
2023/12/11 11:34:04;;;;;;;4.70;2.80;;;;;;;-23.92;50.89;99985.84;6077883;29;20060;-72
2023/12/11 11:37:07;;;;;;;10.70;3.75;;;;;;;-24.10;51.26;99975.50;6074140;29;20044;-73
2023/12/11 11:40:31;;;;;;;7.20;3.25;;;;;;;-23.98;51.45;100012.50;6075666;29;20044;-72
2023/12/11 11:43:36;;;;;;;7.68;4.43;;;;;;;-24.08;51.57;99998.97;6077804;29;20040;-72
2023/12/11 11:46:59;;;;;;;5.75;3.25;;;;;;;-24.06;51.48;100007.50;6076123;29;20565;-70
2023/12/11 11:50:10;;;;;;;10.00;3.60;;;;;;;-24.11;51.58;100003.59;6059074;29;20052;-69
2023/12/11 11:53:15;;;;;;;;;;;;;;;-24.09;51.73;100012.13;6072493;29;20506;-71
2023/12/11 11:56:17;;;;;;;5.00;2.47;;;;;;;-24.18;51.47;100006.06;6079186;29;19926;-68
2023/12/11 11:59:20;;;;;;;6.65;2.88;;;;;;;-24.20;51.68;100004.09;6057879;29;20056;-73
2023/12/11 12:02:27;;;;;;;7.05;3.03;;;;;;;-24.24;51.75;99995.38;6072438;29;20052;-69
2023/12/11 12:05:37;;;;;;;6.57;3.00;;;;;;;-24.38;51.82;99985.38;6072813;29;20040;-66
2023/12/11 12:08:42;;;;;;;4.53;2.78;;;;;;;-24.36;51.86;99996.41;6078687;29;20040;-69
2023/12/11 12:11:44;;;;;;;11.27;4.10;;;;;;;-24.42;52.09;99998.16;6068791;29;20083;-70
2023/12/11 12:14:45;;;;;;;11.63;4.90;;;;;;;-24.54;51.97;99978.59;6074823;29;20472;-73
2023/12/11 12:17:47;;;;;;;13.13;3.97;;;;;;;-24.34;51.85;99992.47;6078749;29;20075;-73
2023/12/11 12:21:04;;;;;;;6.47;4.47;;;;;;;-24.31;51.96;99978.84;6075969;29;20131;-73
2023/12/11 12:24:07;;;;;;;7.57;5.40;;;;;;;-24.23;52.10;99996.25;6076285;29;20036;-72
2023/12/11 12:27:11;;;;;;;;;;;;;;;-24.19;52.24;99979.41;6063639;29;20045;-71
2023/12/11 12:30:13;;;;;;;8.02;3.60;;;;;;;-24.34;52.33;99963.53;6078070;29;20648;-73
2023/12/11 12:33:19;;;;;;;9.02;4.07;;;;;;;-24.31;51.78;99967.97;6069347;29;20032;-73
2023/12/11 12:36:23;;;;;;;13.50;7.35;;;;;;;-24.37;52.49;99994.59;6082338;29;20434;-73
2023/12/11 12:39:25;;;;;;;7.43;4.20;;;;;;;-24.26;52.76;100006.72;6076589;29;20052;-74
2023/12/11 12:42:30;;;;;;;5.50;3.40;;;;;;;-24.33;52.88;100020.06;6079862;29;20040;-72
2023/12/11 12:45:35;;;;;;;6.88;2.42;;;;;;;-24.41;53.24;99997.44;6073778;29;20037;-72
2023/12/11 12:48:37;;;;;;;11.80;4.80;;;;;;;-24.26;53.06;100016.69;6078587;29;20131;-73
2023/12/11 12:51:50;;;;;;;6.85;3.72;;;;;;;-24.19;53.14;100009.25;6083924;29;20131;-71
2023/12/11 12:54:55;;;;;;;12.20;4.90;;;;;;;-24.12;53.21;100021.72;6076053;29;20629;-74
2023/12/11 12:57:57;;;;;;;6.10;4.07;;;;;;;-24.13;53.57;100019.94;6078320;29;20179;-72
2023/12/11 13:01:01;;;;;;;12.33;6.20;;;;;;;-23.98;53.15;100034.91;6071890;29;20627;-73
2023/12/11 13:04:07;;;;;;;16.33;6.25;;;;;;;-24.21;53.64;100010.66;6076766;29;20052;-72
2023/12/11 13:07:11;;;;;;;10.32;4.60;;;;;;;-24.17;53.37;100014.41;6075356;29;20033;-72
2023/12/11 13:10:14;;;;;;;3.33;2.80;;;;;;;-24.22;53.87;100016.38;6077590;29;20051;-73
2023/12/11 13:13:16;;;;;;;;;;;;;;;-24.16;53.61;100029.53;6078671;29;20054;-73
2023/12/11 13:16:19;;;;;;;11.15;4.10;;;;;;;-24.22;53.71;100038.75;6068375;29;19923;-72
2023/12/11 13:19:23;;;;;;;8.32;4.68;;;;;;;-24.24;53.76;100050.13;6080167;29;20055;-73
2023/12/11 13:22:28;;;;;;;13.23;7.57;;;;;;;-24.33;53.85;100068.94;6074562;29;20067;-73
2023/12/11 13:25:32;;;;;;;6.65;4.07;;;;;;;-24.35;54.34;100060.38;6048678;29;20056;-73
2023/12/11 13:28:40;;;;;;;20.58;6.10;;;;;;;-24.16;54.34;100089.25;6082945;29;20048;-73
2023/12/11 13:31:45;;;;;;;12.13;5.95;;;;;;;-24.15;53.80;100091.03;6078122;29;20051;-71
2023/12/11 13:34:51;;;;;;;21.00;6.15;;;;;;;-24.27;53.96;100089.56;6076001;29;20040;-72
2023/12/11 13:37:58;;;;;;;12.57;5.38;;;;;;;-24.23;54.16;100098.28;6082127;29;20055;-73
2023/12/11 13:41:05;;;;;;;4.25;3.85;;;;;;;-24.24;54.17;100099.00;6077572;29;20053;-73
2023/12/11 13:44:11;;;;;;;20.45;6.15;;;;;;;-24.17;54.16;100107.41;6076628;29;20525;-73
2023/12/11 13:47:12;;;;;;;4.15;2.92;;;;;;;-24.21;54.10;100109.31;6070559;29;20146;-72
2023/12/11 13:50:19;;;;;;;15.40;5.65;;;;;;;-24.35;54.47;100120.97;6060774;29;20040;-72
2023/12/11 13:53:23;;;;;;;11.93;3.85;;;;;;;-24.37;53.83;100121.47;6077761;29;20105;-72
2023/12/11 13:56:33;;;;;;;10.95;5.53;;;;;;;-24.36;54.26;100134.13;6077584;29;20039;-72
2023/12/11 13:59:40;;;;;;;19.50;5.75;;;;;;;-24.37;54.13;100143.88;6073175;29;20052;-73
2023/12/11 14:02:47;;;;;;;10.82;5.25;;;;;;;-24.44;54.38;100138.91;6080207;29;20038;-73
2023/12/11 14:05:54;;;;;;;23.10;3.72;;;;;;;-24.46;53.98;100117.91;6074454;29;20056;-71
2023/12/11 14:09:03;;;;;;;13.35;6.80;;;;;;;-24.48;54.33;100106.88;6087478;29;20184;-73
2023/12/11 14:12:05;;;;;;;7.00;3.05;;;;;;;-24.31;54.39;100122.22;6083259;29;20824;-72